createdAt,value
2023-04-27T00:02:20.423Z,100271.69
2023-04-27T00:04:48.255Z,100280.59
2023-04-27T00:07:15.890Z,100273.59
2023-04-27T00:09:42.984Z,100277.75
2023-04-27T00:12:10.277Z,100270.94
2023-04-27T00:14:37.262Z,100282.44
2023-04-27T00:17:05.775Z,100271.88
2023-04-27T00:19:32.830Z,100274.44
2023-04-27T00:22:00.631Z,100270.88
2023-04-27T00:24:27.724Z,100268.38
2023-04-27T00:26:55.098Z,100278.19
2023-04-27T00:29:22.444Z,100275.53
2023-04-27T00:31:50.025Z,100275.47
2023-04-27T00:34:19.721Z,100285.09
2023-04-27T00:36:47.131Z,100279.88
2023-04-27T00:39:14.349Z,100270.22
2023-04-27T00:41:41.902Z,100275.50
2023-04-27T00:44:08.998Z,100285.91
2023-04-27T00:46:37.126Z,100286.09
2023-04-27T00:49:07.628Z,100281.75
2023-04-27T00:51:35.584Z,100281.78
2023-04-27T00:54:02.747Z,100284.44
2023-04-27T00:56:30.204Z,100282.63
2023-04-27T00:58:57.226Z,100272.81
2023-04-27T01:01:24.602Z,100273.88
2023-04-27T01:03:51.917Z,100274.75
2023-04-27T01:06:19.567Z,100271.22
2023-04-27T01:08:47.097Z,100270.25
2023-04-27T01:11:14.556Z,100269.44
2023-04-27T01:13:41.754Z,100277.28
2023-04-27T01:16:09.206Z,100270.25
2023-04-27T01:18:36.301Z,100286.13
2023-04-27T01:21:06.663Z,100274.72
2023-04-27T01:23:34.640Z,100260.66
2023-04-27T01:26:02.977Z,100280.00
2023-04-27T01:28:30.202Z,100285.25
2023-04-27T01:30:57.523Z,100277.34
2023-04-27T01:33:24.640Z,100268.38
2023-04-27T01:35:52.645Z,100278.09
2023-04-27T01:38:19.616Z,100276.34
2023-04-27T01:40:46.912Z,100278.31
2023-04-27T01:43:14.455Z,100274.91
2023-04-27T01:45:41.845Z,100275.91
2023-04-27T01:48:08.920Z,100276.91
2023-04-27T01:50:36.465Z,100269.97
2023-04-27T01:53:03.656Z,100268.25
2023-04-27T01:55:31.245Z,100257.69
2023-04-27T01:57:58.986Z,100266.59
2023-04-27T02:00:26.371Z,100279.88
2023-04-27T02:02:55.530Z,100271.06
2023-04-27T02:05:24.093Z,100274.72
2023-04-27T02:07:51.301Z,100270.44
2023-04-27T02:10:18.855Z,100266.91
2023-04-27T02:12:45.971Z,100265.13
2023-04-27T02:15:13.312Z,100274.00
2023-04-27T02:17:41.382Z,100274.09
2023-04-27T02:20:10.936Z,100281.00
2023-04-27T02:22:44.565Z,100281.88
2023-04-27T02:25:12.466Z,100271.25
2023-04-27T02:27:40.962Z,100281.81
2023-04-27T02:30:11.044Z,100284.44
2023-04-27T02:32:39.071Z,100295.94
2023-04-27T02:35:08.123Z,100296.78
2023-04-27T02:37:35.557Z,100301.09
2023-04-27T02:40:04.479Z,100302.00
2023-04-27T02:42:31.953Z,100304.63
2023-04-27T02:44:59.414Z,100301.16
2023-04-27T02:47:27.453Z,100317.00
2023-04-27T02:49:54.864Z,100310.06
2023-04-27T02:52:22.026Z,100321.50
2023-04-27T02:54:49.392Z,100311.00
2023-04-27T02:57:16.471Z,100312.84
2023-04-27T02:59:43.810Z,100324.34
2023-04-27T03:02:10.893Z,100318.22
2023-04-27T03:04:38.548Z,100326.13
2023-04-27T03:07:05.793Z,100326.13
2023-04-27T03:09:33.390Z,100339.31
2023-04-27T03:12:00.638Z,100337.63
2023-04-27T03:14:28.691Z,100338.53
2023-04-27T03:16:57.472Z,100352.56
2023-04-27T03:19:24.885Z,100344.81
2023-04-27T03:21:51.936Z,100346.63
2023-04-27T03:24:19.394Z,100353.56
2023-04-27T03:26:46.637Z,100354.59
2023-04-27T03:29:14.286Z,100356.38
2023-04-27T03:31:41.553Z,100358.09
2023-04-27T03:34:09.046Z,100357.84
2023-04-27T03:36:36.117Z,100366.09
2023-04-27T03:39:03.838Z,100373.41
2023-04-27T03:41:30.884Z,100370.59
2023-04-27T03:43:58.761Z,100367.50
2023-04-27T03:46:26.400Z,100384.41
2023-04-27T03:49:01.771Z,100382.03
2023-04-27T03:51:34.332Z,100383.94
2023-04-27T03:54:01.734Z,100385.00
2023-04-27T03:56:28.799Z,100390.38
2023-04-27T03:58:56.198Z,100388.72
2023-04-27T04:01:27.048Z,100397.53
2023-04-27T04:04:09.327Z,100400.03
2023-04-27T04:06:51.294Z,100391.75
2023-04-27T04:09:19.167Z,100399.94
2023-04-27T04:11:46.375Z,100396.09
2023-04-27T04:14:18.839Z,100400.41
2023-04-27T04:16:47.841Z,100402.19
2023-04-27T04:19:17.066Z,100394.19
2023-04-27T04:21:44.324Z,100382.63
2023-04-27T04:24:16.935Z,100387.06
2023-04-27T04:26:49.712Z,100371.47
2023-04-27T04:29:17.336Z,100365.03
2023-04-27T04:31:44.445Z,100376.25
2023-04-27T04:34:12.165Z,100375.16
2023-04-27T04:36:39.575Z,100374.94
2023-04-27T04:39:08.956Z,100383.06
2023-04-27T04:41:37.298Z,100380.94
2023-04-27T04:44:05.589Z,100380.56
2023-04-27T04:46:33.751Z,100385.34
2023-04-27T04:49:02.602Z,100374.69
2023-04-27T04:51:32.093Z,100386.97
2023-04-27T04:54:16.051Z,100385.75
2023-04-27T04:56:43.896Z,100367.81
2023-04-27T04:59:17.098Z,100373.19
2023-04-27T05:02:00.003Z,100375.56
2023-04-27T05:04:27.930Z,100371.97
2023-04-27T05:06:54.986Z,100369.78
2023-04-27T05:09:24.132Z,100378.06
2023-04-27T05:11:54.110Z,100378.72
2023-04-27T05:14:23.640Z,100370.38
2023-04-27T05:16:51.728Z,100365.91
2023-04-27T05:19:20.800Z,100358.00
2023-04-27T05:21:47.782Z,100356.69
2023-04-27T05:24:15.338Z,100360.97
2023-04-27T05:26:43.308Z,100357.69
2023-04-27T05:29:29.234Z,100346.66
2023-04-27T05:31:57.598Z,100355.75
2023-04-27T05:34:24.681Z,100355.81
2023-04-27T05:36:52.094Z,100340.66
2023-04-27T05:39:19.153Z,100374.44
2023-04-27T05:41:46.658Z,100357.94
2023-04-27T05:44:14.256Z,100364.84
2023-04-27T05:46:41.656Z,100367.13
2023-04-27T05:49:08.818Z,100373.28
2023-04-27T05:51:38.485Z,100380.28
2023-04-27T05:54:05.677Z,100391.06
2023-04-27T05:56:33.122Z,100398.09
2023-04-27T06:01:42.966Z,100397.88
2023-04-27T06:04:11.889Z,100392.41
2023-04-27T06:06:41.860Z,100388.69
2023-04-27T06:09:08.862Z,100387.13
2023-04-27T06:11:36.306Z,100393.44
2023-04-27T06:14:04.222Z,100388.41
2023-04-27T06:16:36.737Z,100382.25
2023-04-27T06:19:09.145Z,100379.84
2023-04-27T06:21:37.005Z,100389.84
2023-04-27T06:24:04.102Z,100387.31
2023-04-27T06:26:39.827Z,100397.03
2023-04-27T06:29:21.753Z,100391.53
2023-04-27T06:31:49.947Z,100397.75
2023-04-27T06:34:17.511Z,100369.69
2023-04-27T06:36:47.506Z,100401.16
2023-04-27T06:39:23.785Z,100406.44
2023-04-27T06:44:37.645Z,100409.59
2023-04-27T06:47:05.330Z,100406.84
2023-04-27T06:49:32.504Z,100400.88
2023-04-27T06:52:03.882Z,100405.69
2023-04-27T06:54:38.601Z,100391.66
2023-04-27T06:57:06.957Z,100404.34
2023-04-27T06:59:39.137Z,100404.59
2023-04-27T07:02:08.622Z,100399.59
2023-04-27T07:04:36.836Z,100394.03
2023-04-27T07:07:04.460Z,100412.03
2023-04-27T07:09:31.851Z,100406.00
2023-04-27T07:12:01.875Z,100399.03
2023-04-27T07:14:29.577Z,100404.75
2023-04-27T07:16:56.966Z,100417.03
2023-04-27T07:19:24.096Z,100422.06
2023-04-27T07:21:52.104Z,100397.03
2023-04-27T07:24:30.487Z,100404.16
2023-04-27T07:27:01.117Z,100407.84
2023-04-27T07:32:25.611Z,100417.72
2023-04-27T07:34:54.419Z,100401.03
2023-04-27T07:37:24.342Z,100419.00
2023-04-27T07:40:17.185Z,100415.59
2023-04-27T07:42:48.624Z,100412.06
2023-04-27T07:45:41.943Z,100403.88
2023-04-27T07:48:10.014Z,100412.13
2023-04-27T07:50:38.162Z,100413.06
2023-04-27T07:53:08.565Z,100420.91
2023-04-27T07:55:44.053Z,100408.41
2023-04-27T07:58:14.083Z,100416.00
2023-04-27T08:00:41.014Z,100417.19
2023-04-27T08:03:09.388Z,100418.19
2023-04-27T08:05:36.882Z,100404.63
2023-04-27T08:08:04.876Z,100408.72
2023-04-27T08:10:32.232Z,100420.25
2023-04-27T08:12:59.705Z,100422.78
2023-04-27T08:15:27.217Z,100421.41
2023-04-27T08:17:54.531Z,100410.34
2023-04-27T08:20:21.866Z,100430.09
2023-04-27T08:22:51.525Z,100418.69
2023-04-27T08:25:18.781Z,100427.00
2023-04-27T08:27:46.382Z,100421.44
2023-04-27T08:30:15.218Z,100419.78
2023-04-27T08:32:45.693Z,100418.72
2023-04-27T08:35:13.461Z,100428.22
2023-04-27T08:37:41.879Z,100425.69
2023-04-27T08:40:10.068Z,100421.78
2023-04-27T08:42:40.651Z,100423.31
2023-04-27T08:45:09.144Z,100415.75
2023-04-27T08:47:43.176Z,100413.88
2023-04-27T08:50:13.471Z,100409.63
2023-04-27T08:52:48.486Z,100412.38
2023-04-27T08:55:18.113Z,100424.06
2023-04-27T08:58:06.683Z,100417.50
2023-04-27T09:00:41.536Z,100418.88
2023-04-27T09:06:08.686Z,100417.41
2023-04-27T09:08:49.526Z,100428.19
2023-04-27T09:11:38.266Z,100437.25
2023-04-27T09:14:19.822Z,100425.81
2023-04-27T09:16:59.528Z,100426.94
2023-04-27T09:19:28.695Z,100434.88
2023-04-27T09:22:05.083Z,100427.16
2023-04-27T09:24:33.830Z,100425.16
2023-04-27T09:27:01.982Z,100415.72
2023-04-27T09:32:29.813Z,100433.03
2023-04-27T09:35:01.162Z,100432.03
2023-04-27T09:37:30.046Z,100435.69
2023-04-27T09:39:57.422Z,100436.91
2023-04-27T09:42:24.953Z,100428.56
2023-04-27T09:44:55.711Z,100447.59
2023-04-27T09:47:31.950Z,100448.50
2023-04-27T09:50:01.690Z,100454.59
2023-04-27T09:52:29.174Z,100446.88
2023-04-27T09:54:58.560Z,100445.53
2023-04-27T09:57:36.722Z,100447.81
2023-04-27T10:00:17.348Z,100430.19
2023-04-27T10:02:59.991Z,100436.59
2023-04-27T10:05:38.287Z,100431.66
2023-04-27T10:08:06.885Z,100444.44
2023-04-27T10:10:44.039Z,100441.84
2023-04-27T10:13:22.379Z,100437.41
2023-04-27T10:15:49.779Z,100448.56
2023-04-27T10:18:29.113Z,100459.66
2023-04-27T10:20:56.450Z,100453.34
2023-04-27T10:23:27.593Z,100457.97
2023-04-27T10:25:57.426Z,100475.59
2023-04-27T10:28:26.283Z,100465.03
2023-04-27T10:30:53.371Z,100462.22
2023-04-27T10:33:22.865Z,100466.91
2023-04-27T10:36:00.677Z,100442.56
2023-04-27T10:38:33.202Z,100447.38
2023-04-27T10:41:34.628Z,100460.28
2023-04-27T10:47:38.702Z,100465.22
2023-04-27T10:50:07.948Z,100452.44
2023-04-27T10:52:34.922Z,100461.09
2023-04-27T10:55:22.793Z,100461.16
2023-04-27T10:57:54.712Z,100464.13
2023-04-27T11:00:27.536Z,100463.44
2023-04-27T11:02:56.265Z,100462.75
2023-04-27T11:05:30.029Z,100457.38
2023-04-27T11:08:08.469Z,100464.09
2023-04-27T11:10:39.350Z,100474.63
2023-04-27T11:13:15.579Z,100459.69
2023-04-27T11:15:51.825Z,100473.50
2023-04-27T11:18:20.917Z,100470.84
2023-04-27T11:20:57.625Z,100461.72
2023-04-27T11:23:27.051Z,100463.81
2023-04-27T11:25:56.016Z,100471.13
2023-04-27T11:28:24.517Z,100464.56
2023-04-27T11:30:58.721Z,100463.03
2023-04-27T11:33:26.557Z,100463.09
2023-04-27T11:35:54.109Z,100459.25
2023-04-27T11:38:22.870Z,100469.69
2023-04-27T11:41:05.342Z,100466.88
2023-04-27T11:43:33.151Z,100443.28
2023-04-27T11:46:06.530Z,100455.50
2023-04-27T11:51:29.486Z,100472.72
2023-04-27T11:54:15.765Z,100463.34
2023-04-27T11:56:46.590Z,100459.78
2023-04-27T12:02:22.914Z,100443.34
2023-04-27T12:04:51.090Z,100462.63
2023-04-27T12:07:29.454Z,100455.56
2023-04-27T12:09:59.486Z,100463.59
2023-04-27T12:12:46.949Z,100426.97
2023-04-27T12:20:44.664Z,100464.66
2023-04-27T12:23:28.884Z,100466.59
2023-04-27T12:25:57.787Z,100473.91
2023-04-27T12:28:39.963Z,100479.09
2023-04-27T12:31:08.544Z,100467.50
2023-04-27T12:33:36.348Z,100478.94
2023-04-27T12:36:03.993Z,100475.88
2023-04-27T12:38:31.015Z,100451.25
2023-04-27T12:41:02.201Z,100482.28
2023-04-27T12:43:29.218Z,100484.81
2023-04-27T12:45:57.012Z,100485.00
2023-04-27T12:48:25.576Z,100487.94
2023-04-27T12:50:53.159Z,100460.47
2023-04-27T12:53:21.832Z,100482.84
2023-04-27T12:55:49.370Z,100487.25
2023-04-27T12:58:16.456Z,100483.56
2023-04-27T13:00:43.916Z,100485.78
2023-04-27T13:03:11.355Z,100492.38
2023-04-27T13:05:38.929Z,100491.22
2023-04-27T13:08:06.056Z,100479.94
2023-04-27T13:10:34.491Z,100497.78
2023-04-27T13:13:03.465Z,100476.06
2023-04-27T13:15:32.234Z,100480.41
2023-04-27T13:17:59.961Z,100505.66
2023-04-27T13:20:26.942Z,100500.72
2023-04-27T13:22:54.648Z,100507.13
2023-04-27T13:25:21.876Z,100508.13
2023-04-27T13:27:50.235Z,100504.19
2023-04-27T13:30:17.430Z,100499.38
2023-04-27T13:32:44.929Z,100507.19
2023-04-27T13:35:12.433Z,100503.75
2023-04-27T13:37:46.748Z,100504.03
2023-04-27T13:40:23.662Z,100500.31
2023-04-27T13:42:52.202Z,100503.41
2023-04-27T13:45:19.372Z,100507.63
2023-04-27T13:47:47.178Z,100488.88
2023-04-27T13:50:14.529Z,100514.63
2023-04-27T13:52:42.024Z,100506.81
2023-04-27T13:55:11.237Z,100500.56
2023-04-27T13:57:46.467Z,100503.19
2023-04-27T14:00:15.764Z,100510.34
2023-04-27T14:03:00.647Z,100512.41
2023-04-27T14:05:29.190Z,100510.25
2023-04-27T14:07:56.380Z,100514.31
2023-04-27T14:10:24.160Z,100527.56
2023-04-27T14:12:51.280Z,100525.63
2023-04-27T14:15:18.739Z,100527.06
2023-04-27T14:17:52.425Z,100545.38
2023-04-27T14:20:19.776Z,100531.06
2023-04-27T14:22:46.913Z,100538.25
2023-04-27T14:28:03.409Z,100551.22
2023-04-27T14:30:35.252Z,100551.63
2023-04-27T14:33:03.090Z,100544.78
2023-04-27T14:35:34.522Z,100531.50
2023-04-27T14:38:15.264Z,100544.13
2023-04-27T14:40:42.719Z,100532.56
2023-04-27T14:43:20.739Z,100538.78
2023-04-27T14:45:52.865Z,100547.16
2023-04-27T14:48:23.544Z,100537.81
2023-04-27T14:50:52.797Z,100544.25
2023-04-27T14:53:19.808Z,100539.97
2023-04-27T14:55:47.525Z,100551.94
2023-04-27T14:58:15.597Z,100550.88
2023-04-27T15:00:43.562Z,100541.78
2023-04-27T15:03:11.071Z,100565.13
2023-04-27T15:05:39.561Z,100555.56
2023-04-27T15:08:06.615Z,100562.72
2023-04-27T15:10:34.051Z,100561.78
2023-04-27T15:13:02.700Z,100557.78
2023-04-27T15:15:30.222Z,100584.69
2023-04-27T15:17:57.477Z,100575.06
2023-04-27T15:20:24.903Z,100589.66
2023-04-27T15:22:52.486Z,100578.44
2023-04-27T15:25:20.008Z,100586.63
2023-04-27T15:27:47.174Z,100570.69
2023-04-27T15:30:20.094Z,100600.78
2023-04-27T15:32:48.248Z,100593.69
2023-04-27T15:35:17.048Z,100585.75
2023-04-27T15:37:44.346Z,100592.81
2023-04-27T15:43:00.070Z,100582.56
2023-04-27T15:45:29.284Z,100576.69
2023-04-27T15:47:56.496Z,100582.91
2023-04-27T15:50:25.500Z,100588.22
2023-04-27T15:52:53.259Z,100606.81
2023-04-27T15:55:24.724Z,100594.72
2023-04-27T15:57:53.745Z,100603.50
2023-04-27T16:00:25.165Z,100605.19
2023-04-27T16:02:53.473Z,100601.06
2023-04-27T16:08:04.326Z,100623.06
2023-04-27T16:13:13.431Z,100609.16
2023-04-27T16:15:42.004Z,100596.81
2023-04-27T16:18:09.554Z,100623.59
2023-04-27T16:20:37.305Z,100625.44
2023-04-27T16:23:04.823Z,100629.00
2023-04-27T16:25:32.277Z,100630.81
2023-04-27T16:27:59.890Z,100625.69
2023-04-27T16:30:27.803Z,100638.97
2023-04-27T16:32:55.626Z,100636.34
2023-04-27T16:35:23.422Z,100646.19
2023-04-27T16:37:50.833Z,100636.56
2023-04-27T16:40:18.423Z,100657.78
2023-04-27T16:42:45.601Z,100664.00
2023-04-27T16:45:13.168Z,100673.75
2023-04-27T16:47:41.241Z,100670.19
2023-04-27T16:50:09.144Z,100668.47
2023-04-27T16:52:37.732Z,100669.38
2023-04-27T16:55:06.082Z,100670.31
2023-04-27T16:57:33.232Z,100669.50
2023-04-27T17:00:06.265Z,100667.75
2023-04-27T17:02:35.065Z,100676.59
2023-04-27T17:05:03.457Z,100680.97
2023-04-27T17:07:32.982Z,100667.88
2023-04-27T17:10:01.567Z,100671.28
2023-04-27T17:12:28.595Z,100677.50
2023-04-27T17:14:56.495Z,100660.81
2023-04-27T17:17:24.951Z,100666.09
2023-04-27T17:22:42.436Z,100674.97
2023-04-27T17:25:23.888Z,100675.06
2023-04-27T17:27:50.977Z,100674.31
2023-04-27T17:30:19.047Z,100676.06
2023-04-27T17:32:46.206Z,100680.47
2023-04-27T17:35:13.623Z,100682.41
2023-04-27T17:37:40.830Z,100680.59
2023-04-27T17:40:27.036Z,100693.00
2023-04-27T17:42:56.681Z,100696.56
2023-04-27T17:45:27.680Z,100693.94
2023-04-27T17:48:02.599Z,100697.50
2023-04-27T17:50:33.954Z,100686.00
2023-04-27T17:53:04.093Z,100692.34
2023-04-27T17:55:32.008Z,100702.97
2023-04-27T17:57:59.876Z,100693.25
2023-04-27T18:00:27.475Z,100699.56
2023-04-27T18:02:56.536Z,100709.25
2023-04-27T18:05:24.104Z,100711.09
2023-04-27T18:07:51.688Z,100717.25
2023-04-27T18:10:19.309Z,100709.41
2023-04-27T18:12:48.516Z,100720.88
2023-04-27T18:15:16.248Z,100727.22
2023-04-27T18:17:46.127Z,100711.31
2023-04-27T18:20:15.389Z,100705.19
2023-04-27T18:22:45.274Z,100729.06
2023-04-27T18:25:23.851Z,100725.56
2023-04-27T18:27:55.440Z,100707.94
2023-04-27T18:30:23.283Z,100731.75
2023-04-27T18:32:52.666Z,100720.34
2023-04-27T18:35:21.349Z,100735.41
2023-04-27T18:38:17.040Z,100725.75
2023-04-27T18:40:44.965Z,100738.09
2023-04-27T18:43:12.028Z,100729.38
2023-04-27T18:45:39.417Z,100729.38
2023-04-27T18:48:07.008Z,100740.91
2023-04-27T18:50:45.509Z,100740.91
2023-04-27T18:53:14.296Z,100748.88
2023-04-27T18:55:42.522Z,100746.41
2023-04-27T18:58:10.955Z,100746.41
2023-04-27T19:00:38.664Z,100756.22
2023-04-27T19:03:15.335Z,100758.78
2023-04-27T19:05:43.363Z,100757.13
2023-04-27T19:08:10.748Z,100747.44
2023-04-27T19:10:41.393Z,100758.94
2023-04-27T19:13:08.918Z,100757.22
2023-04-27T19:15:36.576Z,100763.41
2023-04-27T19:18:10.537Z,100763.47
2023-04-27T19:20:42.936Z,100761.81
2023-04-27T19:23:13.389Z,100750.34
2023-04-27T19:25:43.883Z,100759.16
2023-04-27T19:28:13.834Z,100757.47
2023-04-27T19:30:41.400Z,100756.53
2023-04-27T19:33:08.546Z,100754.00
2023-04-27T19:35:36.404Z,100757.53
2023-04-27T19:38:04.064Z,100747.78
2023-04-27T19:40:32.914Z,100754.06
2023-04-27T19:43:21.322Z,100757.59
2023-04-27T19:46:13.081Z,100759.44
2023-04-27T19:51:27.858Z,100748.91
2023-04-27T19:53:57.466Z,100753.31
2023-04-27T19:56:24.998Z,100746.31
2023-04-27T19:58:53.234Z,100747.19
2023-04-27T20:01:22.999Z,100758.75
2023-04-27T20:03:53.770Z,100765.84
2023-04-27T20:06:23.390Z,100748.28
2023-04-27T20:08:54.920Z,100760.66
2023-04-27T20:11:22.316Z,100757.22
2023-04-27T20:13:49.577Z,100768.72
2023-04-27T20:16:18.442Z,100755.56
2023-04-27T20:18:45.575Z,100759.94
2023-04-27T20:21:13.014Z,100755.66
2023-04-27T20:23:40.412Z,100764.44
2023-04-27T20:26:07.670Z,100759.19
2023-04-27T20:28:38.234Z,100759.22
2023-04-27T20:31:07.726Z,100766.31
2023-04-27T20:33:44.865Z,100767.28
2023-04-27T20:36:18.207Z,100756.72
2023-04-27T20:38:46.832Z,100756.69
2023-04-27T20:41:14.484Z,100756.75
2023-04-27T20:43:41.602Z,100759.41
2023-04-27T20:46:11.212Z,100750.63
2023-04-27T20:48:38.389Z,100753.31
2023-04-27T20:51:08.894Z,100754.22
2023-04-27T20:53:35.919Z,100760.41
2023-04-27T20:56:03.983Z,100763.97
2023-04-27T20:58:31.233Z,100764.88
2023-04-27T21:01:01.601Z,100765.72
2023-04-27T21:03:43.203Z,100760.56
2023-04-27T21:06:10.867Z,100764.94
2023-04-27T21:08:41.484Z,100763.31
2023-04-27T21:11:09.923Z,100760.69
2023-04-27T21:13:36.920Z,100765.09
2023-04-27T21:16:04.440Z,100763.34
2023-04-27T21:18:31.681Z,100761.66
2023-04-27T21:20:59.330Z,100762.53
2023-04-27T21:23:28.471Z,100769.66
2023-04-27T21:25:56.579Z,100775.03
2023-04-27T21:28:23.636Z,100773.22
2023-04-27T21:30:51.272Z,100767.06
2023-04-27T21:33:18.458Z,100774.13
2023-04-27T21:35:45.876Z,100772.41
2023-04-27T21:38:12.893Z,100784.78
2023-04-27T21:40:40.268Z,100781.25
2023-04-27T21:43:08.120Z,100783.13
2023-04-27T21:45:36.214Z,100775.16
2023-04-27T21:48:04.778Z,100784.91
2023-04-27T21:50:33.957Z,100788.53
2023-04-27T21:53:16.758Z,100777.06
2023-04-27T21:55:46.189Z,100770.94
2023-04-27T21:58:17.813Z,100771.00
2023-04-27T22:00:54.409Z,100769.34
2023-04-27T22:03:31.310Z,100775.50
2023-04-27T22:05:59.479Z,100774.78
2023-04-27T22:08:26.779Z,100755.34
2023-04-27T22:10:54.268Z,100779.31
2023-04-27T22:16:04.389Z,100771.59
2023-04-27T22:18:31.556Z,100783.06
2023-04-27T22:20:59.025Z,100776.94
2023-04-27T22:23:26.486Z,100776.19
2023-04-27T22:25:53.908Z,100780.56
2023-04-27T22:28:21.085Z,100782.38
2023-04-27T22:30:48.723Z,100781.50
2023-04-27T22:33:16.798Z,100786.81
2023-04-27T22:35:44.970Z,100779.72
2023-04-27T22:38:12.036Z,100777.06
2023-04-27T22:40:39.569Z,100785.91
2023-04-27T22:43:06.581Z,100785.06
2023-04-27T22:45:34.500Z,100778.06
2023-04-27T22:48:02.795Z,100786.03
2023-04-27T22:50:30.193Z,100783.34
2023-04-27T22:52:57.189Z,100783.34
2023-04-27T22:55:32.835Z,100776.28
2023-04-27T22:58:00.651Z,100775.44
2023-04-27T23:00:43.077Z,100775.50
2023-04-27T23:03:11.859Z,100779.06
2023-04-27T23:05:39.042Z,100764.97
2023-04-27T23:08:06.934Z,100770.22
2023-04-27T23:10:34.919Z,100764.91
2023-04-27T23:13:03.385Z,100764.06
2023-04-27T23:15:30.403Z,100769.34
2023-04-27T23:17:57.880Z,100776.47
2023-04-27T23:20:28.757Z,100757.09
2023-04-27T23:22:56.948Z,100772.09
2023-04-27T23:25:24.375Z,100768.63
2023-04-27T23:27:52.767Z,100765.16
2023-04-27T23:30:22.585Z,100760.75
2023-04-27T23:32:50.519Z,100762.59
2023-04-27T23:35:18.880Z,100759.03
2023-04-27T23:37:46.499Z,100746.69
2023-04-27T23:40:14.147Z,100742.22
2023-04-27T23:42:41.625Z,100754.56
2023-04-27T23:45:09.192Z,100745.75
2023-04-27T23:47:37.144Z,100754.56
2023-04-27T23:50:04.870Z,100747.53
2023-04-27T23:52:32.269Z,100750.13
2023-04-27T23:54:59.214Z,100747.50
2023-04-27T23:57:26.551Z,100753.63
2023-04-27T23:59:53.600Z,100748.34
